Flight Track Log - Related Links

Times and Time Zones

All times are in EDT time to prevent confusion due to time zone crossing. See the UAL4434 flight status page for this flight to view local times or setup timezone preferences in your user account.

Time Position Orientation Groundspeed Altitude Reporting Facility
EDT Latitude Longitude Course Direction KTS MPH feet Rate Location/Type
Sun 07:27:45 AM 39.3333 -94.7167 84° East 173 199 1,500  Level Kansas City TRACON
Sun 07:28:21 AM 39.3500 -94.7000 38° Northeast 200 230 2,700 1,744 Climbing Kansas City TRACON
Sun 07:29:11 AM 39.3783 -94.6458 56° Northeast 226 260 4,000 1,946 Climbing Kansas City Center
Sun 07:30:00 AM 39.3309 -94.3467 80° East  Level FlightAware Approximate
Sun 07:30:12 AM 39.3792 -94.5400 89° East 263 303 6,300  Level Kansas City Center
Sun 07:31:00 AM 39.3499 -94.2070 80° East  Level FlightAware Approximate
Sun 07:31:12 AM 39.3803 -94.4467 89° East 270 311 8,600  Level Kansas City Center
Sun 07:32:00 AM 39.3685 -94.0671 82° East  Level FlightAware Approximate
Sun 07:32:13 AM 39.3817 -94.3533 89° East 271 312 10,300  Level Kansas City Center
Sun 07:33:00 AM 39.3839 -93.9265 84° East  Level FlightAware Approximate
Sun 07:33:13 AM 39.3839 -94.2469 88° East 311 358 11,000  Level Kansas City Center
Sun 07:34:14 AM 39.3842 -94.1097 90° East 342 394 12,600 1,388 Climbing Kansas City Center
Sun 07:35:14 AM 39.3850 -93.9894 89° East 349 402 13,800 1,140 Climbing Kansas City Center
Sun 07:36:15 AM 39.3953 -93.8667 84° East 359 413 14,900 1,140 Climbing Kansas City Center
Sun 07:37:15 AM 39.4158 -93.7342 79° East 364 419 16,100 1,140 Climbing Kansas City Center
Sun 07:38:16 AM 39.4322 -93.6042 81° East 369 425 17,200 1,140 Climbing Kansas City Center
Sun 07:39:16 AM 39.4486 -93.4742 81° East 370 426 18,400 1,140 Climbing Kansas City Center
Sun 07:40:17 AM 39.4667 -93.3444 80° East 370 426 19,500 1,140 Climbing Kansas City Center
Sun 07:41:17 AM 39.4850 -93.2133 80° East 373 429 20,700 1,140 Climbing Kansas City Center
Sun 07:42:18 AM 39.5008 -93.0778 81° East 381 438 21,800 1,091 Climbing Kansas City Center
Sun 07:43:18 AM 39.5175 -92.9403 81° East 388 447 22,900 1,240 Climbing Kansas City Center
Sun 07:44:19 AM 39.5372 -92.7783 81° East 387 445 24,300 1,240 Climbing Kansas City Center
Sun 07:45:19 AM 39.5544 -92.6444 80° East 383 441 25,400 1,041 Climbing Kansas City Center
Sun 07:46:20 AM 39.5711 -92.5100 81° East 383 441 26,400 984 Climbing Kansas City Center
Sun 07:47:21 AM 39.5867 -92.3758 81° East 381 438 27,400 992 Climbing Kansas City Center
Sun 07:48:21 AM 39.6025 -92.2453 81° East 376 433 28,400 1,041 Climbing Kansas City Center
Sun 07:49:22 AM 39.6183 -92.1131 81° East 375 432 29,500 1,041 Climbing Kansas City Center
Sun 07:50:22 AM 39.6342 -91.9800 81° East 376 433 30,500 992 Climbing Kansas City Center
Sun 07:51:23 AM 39.6494 -91.8483 81° East 375 432 31,500 992 Climbing Kansas City Center
Sun 07:52:23 AM 39.6650 -91.7164 81° East 375 432 32,500 1,041 Climbing Kansas City Center
Sun 07:53:24 AM 39.6797 -91.5833 82° East 376 433 33,600 1,033 Climbing Kansas City Center
Sun 07:54:25 AM 39.6942 -91.4514 82° East 374 430 34,600 694 Climbing Kansas City Center
Sun 07:55:25 AM 39.7122 -91.2942 81° East 373 429 35,000 198 Climbing Kansas City Center
Sun 07:56:26 AM 39.7275 -91.1542 82° East 382 440 35,000  Level Kansas City Center
Sun 07:57:26 AM 39.7436 -91.0050 82° East 394 453 35,000  Level Kansas City Center
Sun 07:58:27 AM 39.7622 -90.8422 81° East 422 486 35,000  Level Kansas City Center
Sun 07:59:27 AM 39.7789 -90.6842 82° East 437 503 35,000  Level Kansas City Center
Sun 08:00:28 AM 39.7953 -90.5258 82° East 442 509 35,000  Level Kansas City Center
Sun 08:01:29 AM 39.8114 -90.3675 82° East 442 509 35,000  Level Kansas City Center
Sun 08:02:29 AM 39.8281 -90.2094 82° East 443 510 35,000  Level Kansas City Center
Sun 08:03:30 AM 39.8428 -90.0519 83° East 442 509 35,000  Level Kansas City Center
Sun 08:04:30 AM 39.8589 -89.8961 82° East 440 506 35,000  Level Kansas City Center
Sun 08:05:31 AM 39.8739 -89.7389 83° East 439 505 35,000  Level Kansas City Center
Sun 08:06:32 AM 39.8892 -89.5825 83° East 439 505 35,000  Level Kansas City Center
Sun 08:06:48 AM 39.8919 -89.5514 83° East 438 504 35,000  Level Chicago Center
Sun 08:07:49 AM 39.9078 -89.3961 82° East 437 503 35,000  Level Chicago Center
Sun 08:08:33 AM 39.9194 -89.2689 83° East 439 505 35,000  Level Kansas City Center
Sun 08:09:34 AM 39.9339 -89.1142 83° East 436 502 35,000  Level Kansas City Center
Sun 08:10:34 AM 39.9478 -88.9592 83° East 433 498 35,000  Level Kansas City Center
Sun 08:11:35 AM 39.9622 -88.8064 83° East 428 493 35,000  Level Kansas City Center
Sun 08:12:35 AM 39.9747 -88.6514 84° East 429 494 35,000  Level Kansas City Center
Sun 08:13:36 AM 39.9889 -88.4972 83° East 430 495 35,000  Level Kansas City Center
Sun 08:14:37 AM 40.0033 -88.3414 83° East 432 497 35,000  Level Kansas City Center
Sun 08:14:57 AM 40.0067 -88.2789 86° East 434 499 35,000  Level Chicago Center
Sun 08:15:58 AM 40.0231 -88.1058 83° East 443 510 35,000  Level Chicago Center
Sun 08:16:59 AM 40.0361 -87.9456 84° East 442 509 35,000  Level Chicago Center
Sun 08:18:00 AM 40.0492 -87.7844 84° East 444 511 35,000  Level Chicago Center
Sun 08:19:01 AM 40.0619 -87.6214 84° East 448 516 35,000  Level Chicago Center
Sun 08:20:03 AM 40.0761 -87.4578 83° East 450 518 35,000  Level Chicago Center
Sun 08:21:04 AM 40.0875 -87.2956 85° East 448 516 35,000  Level Chicago Center
Sun 08:22:05 AM 40.1003 -87.1325 84° East 446 513 35,000  Level Chicago Center
Sun 08:23:06 AM 40.1114 -86.9697 85° East 446 513 35,000  Level Chicago Center
Sun 08:25:09 AM 40.1356 -86.6403 84° East 454 522 35,000  Level Chicago Center
Sun 08:26:10 AM 40.1472 -86.4744 85° East 454 522 35,000  Level Chicago Center
Sun 08:27:11 AM 40.1581 -86.3078 85° East 454 522 35,000  Level Chicago Center
Sun 08:28:13 AM 40.1792 -86.1136 82° East 458 527 35,000  Level Chicago Center
Sun 08:29:14 AM 40.2292 -85.9553 67° East 467 537 35,000  Level Chicago Center
Sun 08:30:15 AM 40.2789 -85.7986 67° East 464 534 35,000  Level Chicago Center
Sun 08:31:16 AM 40.3300 -85.6417 67° East 465 535 35,000  Level Chicago Center
Sun 08:32:18 AM 40.3806 -85.4828 67° East 469 540 35,000  Level Chicago Center
Sun 08:33:19 AM 40.4308 -85.3233 67° East 470 541 35,000  Level Chicago Center
Sun 08:34:20 AM 40.4817 -85.1656 67° East 468 539 35,000  Level Chicago Center
Sun 08:35:21 AM 40.5328 -85.0047 67° East 473 544 35,000  Level Chicago Center
Sun 08:36:23 AM 40.5814 -84.8433 68° East 472 543 35,000  Level Chicago Center
Sun 08:37:24 AM 40.6300 -84.6822 68° East 474 545 35,000  Level Chicago Center
Sun 08:38:38 AM 40.6897 -84.4889 68° East 475 547 35,000  Level Chicago Center
Sun 08:39:33 AM 40.7392 -84.3269 68° East 472 543 35,000  Level Indianapolis Center
Sun 08:40:34 AM 40.7878 -84.1647 68° East 471 542 35,000  Level Indianapolis Center
Sun 08:41:35 AM 40.8275 -83.9997 72° East 468 539 35,000  Level Indianapolis Center
Sun 08:42:37 AM 40.8522 -83.8314 79° East 463 533 35,000  Level Indianapolis Center
Sun 08:43:38 AM 40.8750 -83.6617 80° East 464 534 35,000  Level Indianapolis Center
Sun 08:44:09 AM 40.8892 -83.5661 79° East 455 524 35,000  Level Cleveland Center
Sun 08:45:09 AM 40.9122 -83.3967 80° East 467 537 35,000  Level Cleveland Center
Sun 08:46:09 AM 40.9350 -83.2272 80° East 467 537 35,000  Level Cleveland Center
Sun 08:47:09 AM 40.9556 -83.0550 81° East 467 537 35,000  Level Cleveland Center
Sun 08:48:09 AM 40.9781 -82.8797 80° East 472 543 35,000  Level Cleveland Center
Sun 08:49:09 AM 41.0000 -82.7072 80° East 478 550 35,000  Level Cleveland Center
Sun 08:50:09 AM 41.0242 -82.5261 80° East 488 562 35,000  Level Cleveland Center
Sun 08:51:09 AM 41.0456 -82.3589 80° East 472 543 35,000  Level Cleveland Center
Sun 08:52:09 AM 41.0669 -82.1942 80° East 461 531 35,000  Level Cleveland Center
Sun 08:53:09 AM 41.0878 -82.0267 81° East 456 525 35,000  Level Cleveland Center
Sun 08:54:09 AM 41.1067 -81.8564 82° East 463 533 35,000  Level Cleveland Center
Sun 08:55:09 AM 41.1247 -81.6994 81° East 463 533 35,000  Level Cleveland Center
Sun 08:56:09 AM 41.1494 -81.5233 79° East 475 547 35,000  Level Cleveland Center
Sun 08:57:09 AM 41.1717 -81.3306 81° East 475 547 35,000  Level Cleveland Center
Sun 08:58:09 AM 41.1914 -81.1542 81° East 480 552 35,000  Level Cleveland Center
Sun 08:59:09 AM 41.2131 -80.9806 81° East 479 551 35,000  Level Cleveland Center
Sun 09:00:09 AM 41.2322 -80.8011 82° East 484 557 35,000  Level Cleveland Center
Sun 09:01:09 AM 41.2492 -80.6467 82° East 484 557 35,000  Level Cleveland Center
Sun 09:02:09 AM 41.2678 -80.4725 82° East 484 557 35,000  Level Cleveland Center
Sun 09:03:09 AM 41.2883 -80.2958 81° East 484 557 35,000  Level Cleveland Center
Sun 09:04:09 AM 41.3483 -80.1350 64° Northeast 470 541 35,000  Level Cleveland Center
Sun 09:05:09 AM 41.4247 -79.9711 58° Northeast 465 535 35,000  Level Cleveland Center
Sun 09:06:09 AM 41.5031 -79.8428 51° Northeast 472 543 35,000  Level Cleveland Center
Sun 09:07:09 AM 41.5814 -79.6978 54° Northeast 479 551 35,000  Level Cleveland Center
Sun 09:08:09 AM 41.6594 -79.5492 55° Northeast 484 557 35,000  Level Cleveland Center
Sun 09:09:09 AM 41.7056 -79.3817 70° East 466 536 35,000  Level Cleveland Center
Sun 09:10:09 AM 41.6825 -79.1875 99° East 460 529 35,000 -500 Level Cleveland Center
Sun 09:11:09 AM 41.6594 -79.0128 100° East 472 543 34,000 -1,350 Descending Cleveland Center
Sun 09:12:09 AM 41.6364 -78.8550 101° East 477 549 32,300 -1,029 Descending Cleveland Center
Sun 09:14:04 AM 41.5950 -78.5300 100° East 469 540 31,000 -443 Descending New York Center
Sun 09:15:05 AM 41.5683 -78.3603 102° East 469 540 31,000  Level New York Center
Sun 09:16:05 AM 41.5456 -78.1942 100° East 464 534 31,000  Level New York Center
Sun 09:17:07 AM 41.5208 -78.0222 101° East 464 534 31,000  Level New York Center
Sun 09:18:04 AM 41.4936 -77.8503 102° East 464 534 31,000  Level New York Center
Sun 09:19:05 AM 41.4708 -77.6736 100° East 475 547 31,000  Level New York Center
Sun 09:20:06 AM 41.4425 -77.4767 101° East 480 552 31,000  Level New York Center
Sun 09:21:04 AM 41.4147 -77.2997 102° East 485 558 31,000 -550 Level New York Center
Sun 09:22:06 AM 41.3889 -77.1258 101° East 485 558 29,900 -1,550 Descending New York Center
Sun 09:23:04 AM 41.3628 -76.9492 101° East 485 558 27,900 -1,983 Descending New York Center
Sun 09:24:04 AM 41.3358 -76.7808 102° East 474 545 26,000 -1,902 Descending New York Center
Sun 09:25:07 AM 41.2994 -76.6339 108° East 468 539 24,000 -1,950 Descending New York Center
Sun 09:26:04 AM 41.2589 -76.4842 110° East 451 519 22,100 -1,983 Descending New York Center
Sun 09:27:05 AM 41.2200 -76.3400 110° East 430 495 20,100 -1,967 Descending New York Center
Sun 09:28:06 AM 41.1847 -76.2019 109° East 406 467 18,100 -1,714 Descending New York Center
Sun 09:29:04 AM 41.1492 -76.0697 110° East 392 451 16,700 -1,664 Descending New York Center
Sun 09:30:05 AM 41.1094 -75.9261 110° East 376 433 14,800 -1,770 Descending New York Center
Sun 09:31:06 AM 41.0753 -75.7997 110° East 376 433 13,100 -1,636 Descending New York Center
Sun 09:32:06 AM 41.0444 -75.6928 111° Southeast 361 415 11,500 -1,119 Descending New York Center
Sun 09:33:04 AM 41.0139 -75.5778 109° East 339 390 10,900 -254 Descending New York Center
Sun 09:34:04 AM 40.9792 -75.4544 110° East 328 377 11,000 -738 Climbing New York Center
Sun 09:35:06 AM 40.9517 -75.3564 110° East 294 338 9,400 -1,000 Descending New York Center
Sun 09:36:04 AM 40.9242 -75.2639 111° Southeast 277 319 9,000 -504 Descending New York Center
Sun 09:37:05 AM 40.8983 -75.1744 111° Southeast 272 313 8,400 -800 Descending New York Center
Sun 09:38:04 AM 40.8761 -75.0933 110° East 266 306 7,400 -706 Descending New York Center
Sun 09:39:04 AM 40.8503 -75.0011 110° East 261 300 7,000 -248 Descending New York Center
Sun 09:40:05 AM 40.8250 -74.8981 108° East 261 300 6,900 -446 Descending New York Center
Sun 09:41:05 AM 40.8367 -74.8000 81° East 261 300 6,100 -694 Descending New York Center
Sun 09:42:06 AM 40.8522 -74.7050 78° East 261 300 5,500 -555 Descending New York Center
Sun 09:43:04 AM 40.8658 -74.6097 79° East 267 307 5,000 -646 Descending New York Center
Sun 09:44:16 AM 40.8833 -74.5000 78° East 260 299 4,100 -450 Descending New York TRACON
Sun 09:45:04 AM 40.8947 -74.4247 79° East 256 295 4,100  Level New York Center
Sun 09:46:07 AM 40.9081 -74.3294 79° East 256 295 4,100 -347 Level New York Center
Sun 09:47:05 AM 40.9067 -74.2333 91° East 256 295 3,400 -555 Descending New York Center
Sun 09:48:06 AM 40.8992 -74.1367 96° East 256 295 3,000 -468 Descending New York Center
Sun 09:48:22 AM 40.9000 -74.1000 88° East 266 306 2,800 -316 Descending New York TRACON
Sun 09:49:22 AM 40.8833 -74.0167 105° East 265 305 2,600 -200 Descending New York TRACON

Login

Don't have an account? Register now (free) for customized features, flight alerts, and more!